createdAt,value
2018-04-10T00:00:04.978Z,8.07
2018-04-10T00:02:34.772Z,7.43
2018-04-10T00:05:04.604Z,8.97
2018-04-10T00:07:34.395Z,6.93
2018-04-10T00:10:04.341Z,7.50
2018-04-10T00:12:34.111Z,5.60
2018-04-10T00:15:04.039Z,8.77
2018-04-10T00:17:33.821Z,6.00
2018-04-10T00:20:03.830Z,8.33
2018-04-10T00:22:33.677Z,5.50
2018-04-10T00:25:03.435Z,12.57
2018-04-10T00:27:33.206Z,9.23
2018-04-10T00:30:03.233Z,8.93
2018-04-10T00:32:33.016Z,9.83
2018-04-10T00:35:02.779Z,10.60
2018-04-10T00:37:32.567Z,6.83
2018-04-10T00:40:02.788Z,10.40
2018-04-10T00:42:32.567Z,10.10
2018-04-10T00:45:02.374Z,11.20
2018-04-10T00:47:32.201Z,10.37
2018-04-10T00:50:02.345Z,13.17
2018-04-10T00:52:32.095Z,13.67
2018-04-10T00:55:01.963Z,11.63
2018-04-10T00:57:31.789Z,11.30
2018-04-10T01:00:01.708Z,11.63
2018-04-10T01:02:31.478Z,12.30
2018-04-10T01:05:01.247Z,8.33
2018-04-10T01:07:31.119Z,10.03
2018-04-10T01:10:00.883Z,10.33
2018-04-10T01:12:30.645Z,14.30
2018-04-10T01:15:00.464Z,12.93
2018-04-10T01:17:30.259Z,8.33
2018-04-10T01:20:00.027Z,14.90
2018-04-10T01:22:29.793Z,10.67
2018-04-10T01:24:59.552Z,9.43
2018-04-10T01:27:29.307Z,10.57
2018-04-10T01:29:59.095Z,11.10
2018-04-10T01:32:28.872Z,13.43
2018-04-10T01:34:58.666Z,12.33
2018-04-10T01:37:28.465Z,11.83
2018-04-10T01:39:58.340Z,12.83
2018-04-10T01:42:28.108Z,10.27
2018-04-10T01:44:57.884Z,11.37
2018-04-10T01:47:27.696Z,14.13
2018-04-10T01:49:57.599Z,11.57
2018-04-10T01:52:27.421Z,9.90
2018-04-10T01:54:57.227Z,13.40
2018-04-10T01:57:26.995Z,10.30
2018-04-10T01:59:56.827Z,10.70
2018-04-10T02:02:26.571Z,12.93
2018-04-10T02:04:56.339Z,13.90
2018-04-10T02:07:26.108Z,11.13
2018-04-10T02:21:15.840Z,13.00
2018-04-10T02:23:57.346Z,12.87
2018-04-10T02:26:27.143Z,14.13
2018-04-10T02:28:56.924Z,17.53
2018-04-10T02:31:26.701Z,14.73
2018-04-10T02:33:56.500Z,14.00
2018-04-10T02:36:26.254Z,14.23
2018-04-10T02:38:56.112Z,14.80
2018-04-10T02:41:25.992Z,19.77
2018-04-10T02:43:55.839Z,15.33
2018-04-10T02:46:25.598Z,14.43
2018-04-10T02:48:55.400Z,17.70
2018-04-10T02:51:25.190Z,17.60
2018-04-10T02:53:54.982Z,16.60
2018-04-10T02:56:24.794Z,14.60
2018-04-10T02:58:54.522Z,19.27
2018-04-10T03:01:24.313Z,13.47
2018-04-10T03:03:54.122Z,14.57
2018-04-10T03:06:23.908Z,18.67
2018-04-10T03:08:53.754Z,10.43
2018-04-10T03:11:23.506Z,14.53
2018-04-10T03:13:53.376Z,13.43
2018-04-10T03:16:23.133Z,15.33
2018-04-10T03:18:52.932Z,17.67
2018-04-10T03:21:22.700Z,12.87
2018-04-10T03:23:52.516Z,14.53
2018-04-10T03:26:22.324Z,17.13
2018-04-10T03:28:52.111Z,14.03
2018-04-10T03:31:21.867Z,14.40
2018-04-10T03:33:51.621Z,17.90
2018-04-10T03:36:21.418Z,14.97
2018-04-10T03:38:51.204Z,14.23
2018-04-10T03:41:20.996Z,14.37
2018-04-10T03:43:50.792Z,11.03
2018-04-10T03:46:20.565Z,13.60
2018-04-10T03:48:50.339Z,15.57
2018-04-10T03:51:20.100Z,11.17
2018-04-10T03:53:49.897Z,16.60
2018-04-10T03:56:19.699Z,13.37
2018-04-10T03:58:49.472Z,12.67
2018-04-10T04:01:19.243Z,14.33
2018-04-10T04:03:49.020Z,19.73
2018-04-10T04:06:19.119Z,19.97
2018-04-10T04:08:49.132Z,17.20
2018-04-10T04:11:18.884Z,16.27
2018-04-10T04:13:48.663Z,14.90
2018-04-10T04:16:24.445Z,17.37
2018-04-10T04:19:00.215Z,17.47
2018-04-10T04:21:35.956Z,14.33
2018-04-10T04:24:05.727Z,19.77
2018-04-10T04:26:35.621Z,19.13
2018-04-10T04:29:05.391Z,14.83
2018-04-10T04:31:35.313Z,15.90
2018-04-10T04:34:05.092Z,19.00
2018-04-10T04:36:34.869Z,15.27
2018-04-10T04:39:04.642Z,19.17
2018-04-10T04:41:34.416Z,18.30
2018-04-10T04:44:04.219Z,16.93
2018-04-10T04:46:33.991Z,15.00
2018-04-10T04:49:03.787Z,15.87
2018-04-10T04:51:33.580Z,20.47
2018-04-10T04:54:03.382Z,19.47
2018-04-10T04:56:33.160Z,18.73
2018-04-10T04:59:02.948Z,15.10
2018-04-10T05:01:32.720Z,13.57
2018-04-10T05:04:02.492Z,18.27
2018-04-10T05:06:32.256Z,13.60
2018-04-10T05:09:02.060Z,17.33
2018-04-10T05:11:31.827Z,16.83
2018-04-10T05:14:01.651Z,13.93
2018-04-10T05:16:31.543Z,12.77
2018-04-10T05:19:01.362Z,13.40
2018-04-10T05:21:31.172Z,13.27
2018-04-10T05:24:01.000Z,13.27
2018-04-10T05:26:30.800Z,14.63
2018-04-10T05:29:00.571Z,15.57
2018-04-10T05:31:30.421Z,12.03
2018-04-10T05:34:00.208Z,14.27
2018-04-10T05:36:29.994Z,12.77
2018-04-10T05:38:59.757Z,12.57
2018-04-10T05:41:29.580Z,13.30
2018-04-10T05:43:59.391Z,11.23
2018-04-10T05:46:29.204Z,12.27
2018-04-10T05:48:58.953Z,12.33
2018-04-10T05:51:28.756Z,12.13
2018-04-10T05:53:58.539Z,20.70
2018-04-10T05:56:28.335Z,16.13
2018-04-10T05:58:58.101Z,16.30
2018-04-10T06:01:27.871Z,16.67
2018-04-10T06:03:57.713Z,17.67
2018-04-10T06:06:27.452Z,13.27
2018-04-10T06:08:57.287Z,18.60
2018-04-10T06:11:27.079Z,19.37
2018-04-10T06:13:56.836Z,14.10
2018-04-10T06:16:26.632Z,12.93
2018-04-10T06:18:56.392Z,11.93
2018-04-10T06:21:26.580Z,12.90
2018-04-10T06:23:56.319Z,10.67
2018-04-10T06:26:26.095Z,15.53
2018-04-10T06:28:55.864Z,10.23
2018-04-10T06:31:25.667Z,14.53
2018-04-10T06:33:55.412Z,9.83
2018-04-10T06:36:25.366Z,14.77
2018-04-10T06:38:55.134Z,15.47
2018-04-10T06:41:25.053Z,18.27
2018-04-10T06:43:54.821Z,19.63
2018-04-10T06:46:24.596Z,24.77
2018-04-10T06:48:54.344Z,21.77
2018-04-10T06:51:24.131Z,26.57
2018-04-10T06:53:53.887Z,22.70
2018-04-10T06:56:23.764Z,23.33
2018-04-10T06:58:53.637Z,23.50
2018-04-10T07:01:23.423Z,20.60
2018-04-10T07:03:53.300Z,31.53
2018-04-10T07:06:23.066Z,23.10
2018-04-10T07:08:52.884Z,31.03
2018-04-10T07:11:22.659Z,37.67
2018-04-10T07:13:52.512Z,25.73
2018-04-10T07:16:22.276Z,26.73
2018-04-10T07:18:52.060Z,22.43
2018-04-10T07:21:21.841Z,20.47
2018-04-10T07:23:51.635Z,18.20
2018-04-10T07:26:21.417Z,19.53
2018-04-10T07:28:51.204Z,16.10
2018-04-10T07:31:20.990Z,25.73
2018-04-10T07:33:50.812Z,16.17
2018-04-10T07:36:20.581Z,16.83
2018-04-10T07:38:50.415Z,17.87
2018-04-10T07:41:20.186Z,16.63
2018-04-10T07:43:49.967Z,18.07
2018-04-10T07:46:19.739Z,17.80
2018-04-10T07:48:49.520Z,20.60
2018-04-10T07:51:19.287Z,15.00
2018-04-10T07:53:49.098Z,19.70
2018-04-10T07:56:18.856Z,19.80
2018-04-10T07:58:48.646Z,20.53
2018-04-10T08:01:18.429Z,20.50
2018-04-10T08:03:48.195Z,18.60
2018-04-10T08:06:18.003Z,27.13
2018-04-10T08:08:47.866Z,20.43
2018-04-10T08:11:17.619Z,22.20
2018-04-10T08:13:47.484Z,33.90
2018-04-10T08:16:17.304Z,26.93
2018-04-10T08:18:47.071Z,22.17
2018-04-10T08:21:16.839Z,17.13
2018-04-10T08:23:46.626Z,18.93
2018-04-10T08:26:16.397Z,18.73
2018-04-10T08:28:46.222Z,22.30
2018-04-10T08:31:15.992Z,16.30
2018-04-10T08:33:45.771Z,17.00
2018-04-10T08:36:15.596Z,14.37
2018-04-10T08:38:45.375Z,17.60
2018-04-10T08:41:15.152Z,15.83
2018-04-10T08:43:45.025Z,12.43
2018-04-10T08:46:14.806Z,16.93
2018-04-10T08:48:44.578Z,14.43
2018-04-10T08:51:14.357Z,16.70
2018-04-10T08:53:44.120Z,11.53
2018-04-10T08:56:13.981Z,12.63
2018-04-10T08:58:43.788Z,18.20
2018-04-10T09:01:13.556Z,11.87
2018-04-10T09:03:43.411Z,16.40
2018-04-10T09:06:13.180Z,15.23
2018-04-10T09:08:42.944Z,15.07
2018-04-10T09:11:12.754Z,17.33
2018-04-10T09:13:42.508Z,14.70
2018-04-10T09:16:12.403Z,16.10
2018-04-10T09:18:42.137Z,14.63
2018-04-10T09:21:11.928Z,20.50
2018-04-10T09:23:41.712Z,12.60
2018-04-10T09:26:11.525Z,23.87
2018-04-10T09:28:41.269Z,13.90
2018-04-10T09:31:11.051Z,13.93
2018-04-10T09:33:40.803Z,12.37
2018-04-10T09:36:10.588Z,15.97
2018-04-10T09:38:40.328Z,23.60
2018-04-10T09:41:10.144Z,20.43
2018-04-10T09:43:39.913Z,15.97
2018-04-10T09:46:09.723Z,16.70
2018-04-10T09:48:39.464Z,12.70
2018-04-10T09:51:09.325Z,23.17
2018-04-10T09:53:39.091Z,18.10
2018-04-10T09:56:08.963Z,18.03
2018-04-10T09:58:38.763Z,17.00
2018-04-10T10:01:08.551Z,19.00
2018-04-10T10:03:38.392Z,18.43
2018-04-10T10:06:08.175Z,11.50
2018-04-10T10:08:38.024Z,14.17
2018-04-10T10:11:07.783Z,26.23
2018-04-10T10:13:37.564Z,30.93
2018-04-10T10:16:07.342Z,32.37
2018-04-10T10:18:37.114Z,14.47
2018-04-10T10:21:06.967Z,16.03
2018-04-10T10:23:36.783Z,18.13
2018-04-10T10:26:06.555Z,20.80
2018-04-10T10:28:36.413Z,16.90
2018-04-10T10:31:06.176Z,20.07
2018-04-10T10:33:36.014Z,37.10
2018-04-10T10:36:05.783Z,30.33
2018-04-10T10:38:35.639Z,53.47
2018-04-10T10:41:05.463Z,48.33
2018-04-10T10:43:35.258Z,16.57
2018-04-10T10:46:05.050Z,97.50
2018-04-10T10:48:34.831Z,40.93
2018-04-10T10:51:04.609Z,17.23
2018-04-10T10:53:34.387Z,28.40
2018-04-10T10:56:04.223Z,14.53
2018-04-10T10:58:34.008Z,41.83
2018-04-10T11:01:03.899Z,26.53
2018-04-10T11:03:33.626Z,10.00
2018-04-10T11:06:03.399Z,24.53
2018-04-10T11:08:33.191Z,27.97
2018-04-10T11:11:03.006Z,10.40
2018-04-10T11:13:32.769Z,12.37
2018-04-10T11:16:02.747Z,16.47
2018-04-10T11:18:32.540Z,15.77
2018-04-10T11:21:02.443Z,12.97
2018-04-10T11:23:32.218Z,7.60
2018-04-10T11:26:01.968Z,7.57
2018-04-10T11:28:31.787Z,14.07
2018-04-10T11:31:01.595Z,6.73
2018-04-10T11:33:31.408Z,11.27
2018-04-10T11:36:01.211Z,4.60
2018-04-10T11:38:30.974Z,10.70
2018-04-10T11:41:00.750Z,8.23
2018-04-10T11:43:30.491Z,5.67
2018-04-10T11:46:00.263Z,7.30
2018-04-10T11:48:30.022Z,14.40
2018-04-10T11:50:59.880Z,14.43
2018-04-10T11:53:29.647Z,16.73
2018-04-10T11:55:59.424Z,31.40
2018-04-10T11:58:29.185Z,11.00
2018-04-10T12:00:58.959Z,15.33
2018-04-10T12:03:28.727Z,8.77
2018-04-10T12:05:58.502Z,15.07
2018-04-10T12:08:28.292Z,17.27
2018-04-10T12:10:58.159Z,43.47
2018-04-10T12:13:27.915Z,33.13
2018-04-10T12:15:57.798Z,93.50
2018-04-10T12:18:27.548Z,77.37
2018-04-10T12:20:57.432Z,33.67
2018-04-10T12:23:27.188Z,19.10
2018-04-10T12:25:56.968Z,72.67
2018-04-10T12:28:26.750Z,8.93
2018-04-10T12:30:56.530Z,22.23
2018-04-10T12:33:26.408Z,16.33
2018-04-10T12:35:56.176Z,26.80
2018-04-10T12:38:25.925Z,9.50
2018-04-10T12:40:55.722Z,11.13
2018-04-10T12:43:25.503Z,11.07
2018-04-10T12:45:55.339Z,9.33
2018-04-10T12:48:25.108Z,14.33
2018-04-10T12:50:54.889Z,17.47
2018-04-10T12:53:24.665Z,7.50
2018-04-10T12:55:54.486Z,11.97
2018-04-10T12:58:24.253Z,8.43
2018-04-10T13:00:54.024Z,10.13
2018-04-10T13:03:23.920Z,9.70
2018-04-10T13:05:53.726Z,7.83
2018-04-10T13:08:23.490Z,12.27
2018-04-10T13:10:53.349Z,7.90
2018-04-10T13:13:23.122Z,8.10
2018-04-10T13:15:52.869Z,8.37
2018-04-10T13:18:22.649Z,8.73
2018-04-10T13:20:52.402Z,8.40
2018-04-10T13:23:22.199Z,13.83
2018-04-10T13:25:52.191Z,10.33
2018-04-10T13:28:22.016Z,9.90
2018-04-10T13:30:51.837Z,6.27
2018-04-10T13:33:21.631Z,6.90
2018-04-10T13:35:51.790Z,25.30
2018-04-10T13:38:21.596Z,23.67
2018-04-10T13:40:51.353Z,36.80
2018-04-10T13:43:21.173Z,6.87
2018-04-10T13:45:50.922Z,15.43
2018-04-10T13:48:20.719Z,34.40
2018-04-10T13:50:50.503Z,48.73
2018-04-10T13:53:20.282Z,26.03
2018-04-10T13:55:50.420Z,29.90
2018-04-10T13:58:20.211Z,23.20
2018-04-10T14:00:49.980Z,27.33
2018-04-10T14:03:19.806Z,32.07
2018-04-10T14:05:49.571Z,69.03
2018-04-10T14:08:19.351Z,28.00
2018-04-10T14:10:49.122Z,19.07
2018-04-10T14:13:18.899Z,20.53
2018-04-10T14:15:48.655Z,9.80
2018-04-10T14:18:18.424Z,20.63
2018-04-10T14:20:48.204Z,25.07
2018-04-10T14:23:18.003Z,14.70
2018-04-10T14:25:47.814Z,30.47
2018-04-10T14:28:17.564Z,16.73
2018-04-10T14:30:47.333Z,15.80
2018-04-10T14:33:17.595Z,9.97
2018-04-10T14:35:47.364Z,13.10
2018-04-10T14:38:17.120Z,10.50
2018-04-10T14:40:46.975Z,10.70
2018-04-10T14:43:17.287Z,10.23
2018-04-10T14:45:47.019Z,10.40
2018-04-10T14:48:16.785Z,11.47
2018-04-10T14:50:46.577Z,10.87
2018-04-10T14:53:16.661Z,29.10
2018-04-10T14:55:46.419Z,24.20
2018-04-10T14:58:16.185Z,37.83
2018-04-10T15:00:45.983Z,47.13
2018-04-10T15:03:15.744Z,25.43
2018-04-10T15:05:45.556Z,9.60
2018-04-10T15:08:15.273Z,17.90
2018-04-10T15:10:45.053Z,15.73
2018-04-10T15:13:14.888Z,10.70
2018-04-10T15:15:44.695Z,8.30
2018-04-10T15:18:14.459Z,12.83
2018-04-10T15:20:44.300Z,6.67
2018-04-10T15:23:14.515Z,12.27
2018-04-10T15:25:44.322Z,5.60
2018-04-10T15:28:14.131Z,5.78
2018-04-10T15:30:43.932Z,8.53
2018-04-10T15:33:13.700Z,9.73
2018-04-10T15:35:43.509Z,11.53
2018-04-10T15:38:13.268Z,11.77
2018-04-10T15:40:43.052Z,10.87
2018-04-10T15:43:12.873Z,5.97
2018-04-10T15:45:42.632Z,11.53
2018-04-10T15:48:12.395Z,6.43
2018-04-10T15:50:42.166Z,7.90
2018-04-10T15:53:11.940Z,14.67
2018-04-10T15:55:41.739Z,17.40
2018-04-10T15:58:11.499Z,15.50
2018-04-10T16:00:41.275Z,12.60
2018-04-10T16:03:11.395Z,16.03
2018-04-10T16:05:41.343Z,9.80
2018-04-10T16:08:11.125Z,14.23
2018-04-10T16:10:40.884Z,10.80
2018-04-10T16:13:10.751Z,13.17
2018-04-10T16:15:40.488Z,7.40
2018-04-10T16:18:10.276Z,4.50
2018-04-10T16:20:40.096Z,9.10
2018-04-10T16:23:10.100Z,10.83
2018-04-10T16:25:39.912Z,10.10
2018-04-10T16:28:09.676Z,8.30
2018-04-10T16:30:39.522Z,9.67
2018-04-10T16:33:09.279Z,7.97
2018-04-10T16:35:39.039Z,13.03
2018-04-10T16:38:08.828Z,13.57
2018-04-10T16:40:38.584Z,9.83
2018-04-10T16:43:08.796Z,6.43
2018-04-10T16:45:38.568Z,12.23
2018-04-10T16:48:08.383Z,7.73
2018-04-10T16:50:38.117Z,6.73
2018-04-10T16:53:07.882Z,5.00
2018-04-10T16:55:37.638Z,8.73
2018-04-10T16:58:07.459Z,4.27
2018-04-10T17:00:37.204Z,3.27
2018-04-10T17:03:07.066Z,4.70
2018-04-10T17:05:36.832Z,2.23
2018-04-10T17:08:06.622Z,2.57
2018-04-10T17:10:36.380Z,6.40
2018-04-10T17:13:06.300Z,3.17
2018-04-10T17:15:36.047Z,4.20
2018-04-10T17:18:05.829Z,4.53
2018-04-10T17:20:35.594Z,4.63
2018-04-10T17:23:05.785Z,10.23
2018-04-10T17:25:35.549Z,7.00
2018-04-10T17:28:05.311Z,5.30
2018-04-10T17:30:35.124Z,11.53
2018-04-10T17:33:04.880Z,7.47
2018-04-10T17:35:34.743Z,14.13
2018-04-10T17:38:04.491Z,6.13
2018-04-10T17:40:34.276Z,10.17
2018-04-10T17:43:04.382Z,12.47
2018-04-10T17:45:34.156Z,6.47
2018-04-10T17:48:03.949Z,7.17
2018-04-10T17:50:33.715Z,5.43
2018-04-10T17:53:03.537Z,6.63
2018-04-10T17:55:33.294Z,6.23
2018-04-10T17:58:03.077Z,3.30
2018-04-10T18:00:32.848Z,2.27
2018-04-10T18:03:02.612Z,3.43
2018-04-10T18:05:32.392Z,3.13
2018-04-10T18:08:02.134Z,7.87
2018-04-10T18:10:32.201Z,10.17
2018-04-10T18:13:01.962Z,12.53
2018-04-10T18:15:31.809Z,9.30
2018-04-10T18:18:01.563Z,5.93
2018-04-10T18:20:31.459Z,4.73
2018-04-10T18:23:01.244Z,5.80
2018-04-10T18:25:31.016Z,9.50
2018-04-10T18:28:00.848Z,3.17
2018-04-10T18:30:30.613Z,4.13
2018-04-10T18:33:00.416Z,3.17
2018-04-10T18:35:30.272Z,3.80
2018-04-10T18:38:00.032Z,5.33
2018-04-10T18:40:29.891Z,3.80
2018-04-10T18:42:59.683Z,5.77
2018-04-10T18:45:29.475Z,4.30
2018-04-10T18:47:59.359Z,5.27
2018-04-10T18:50:29.171Z,5.37
2018-04-10T18:52:58.923Z,4.13
2018-04-10T18:55:28.729Z,2.80
2018-04-10T18:57:58.540Z,6.07
2018-04-10T19:00:28.420Z,3.23
2018-04-10T19:02:58.264Z,4.10
2018-04-10T19:05:28.239Z,1.87
2018-04-10T19:07:58.130Z,4.17
2018-04-10T19:10:27.988Z,11.63
2018-04-10T19:12:57.833Z,7.13
2018-04-10T19:15:27.714Z,5.27
2018-04-10T19:17:57.581Z,3.83
2018-04-10T19:20:28.288Z,4.23
2018-04-10T19:22:58.157Z,3.67
2018-04-10T19:25:28.072Z,2.63
2018-04-10T19:27:57.993Z,3.17
2018-04-10T19:30:27.929Z,4.23
2018-04-10T19:32:57.817Z,4.87
2018-04-10T19:35:27.640Z,5.63
2018-04-10T19:37:57.546Z,6.97
2018-04-10T19:40:27.388Z,7.30
2018-04-10T19:42:58.032Z,5.27
2018-04-10T19:45:27.988Z,6.47
2018-04-10T19:47:57.913Z,3.20
2018-04-10T19:50:27.977Z,4.50
2018-04-10T19:52:57.858Z,4.93
2018-04-10T19:55:27.819Z,9.17
2018-04-10T19:57:57.709Z,4.73
2018-04-10T20:00:27.549Z,6.33
2018-04-10T20:02:57.427Z,9.03
2018-04-10T20:05:27.272Z,8.63
2018-04-10T20:07:57.047Z,6.37
2018-04-10T20:10:26.965Z,5.03
2018-04-10T20:12:56.756Z,5.60
2018-04-10T20:15:26.544Z,6.87
2018-04-10T20:17:56.405Z,7.37
2018-04-10T20:20:26.171Z,8.43
2018-04-10T20:22:56.053Z,12.87
2018-04-10T20:25:25.843Z,9.43
2018-04-10T20:27:55.623Z,4.67
2018-04-10T20:30:25.390Z,5.67
2018-04-10T20:32:55.520Z,4.17
2018-04-10T20:35:25.300Z,5.07
2018-04-10T20:37:55.110Z,4.67
2018-04-10T20:40:24.843Z,7.20
2018-04-10T20:42:54.620Z,4.17
2018-04-10T20:45:24.367Z,4.43
2018-04-10T20:47:54.135Z,6.13
2018-04-10T20:50:23.890Z,7.07
2018-04-10T20:52:53.664Z,8.87
2018-04-10T20:55:23.410Z,4.37
2018-04-10T20:57:53.175Z,4.50
2018-04-10T21:00:22.949Z,10.60
2018-04-10T21:02:52.745Z,11.33
2018-04-10T21:05:22.504Z,6.13
2018-04-10T21:07:52.263Z,8.27
2018-04-10T21:10:22.032Z,9.47
2018-04-10T21:12:51.801Z,5.87
2018-04-10T21:15:21.651Z,6.73
2018-04-10T21:17:51.421Z,5.20
2018-04-10T21:20:21.175Z,3.63
2018-04-10T21:22:50.987Z,7.80
2018-04-10T21:25:20.765Z,12.97
2018-04-10T21:27:50.529Z,17.63
2018-04-10T21:30:20.670Z,6.50
2018-04-10T21:32:50.455Z,10.17
2018-04-10T21:35:20.254Z,8.33
2018-04-10T21:37:50.003Z,6.77
2018-04-10T21:40:19.795Z,9.30
2018-04-10T21:42:55.306Z,8.07
2018-04-10T21:45:25.103Z,7.70
2018-04-10T21:47:54.877Z,6.07
2018-04-10T21:50:24.763Z,7.03
2018-04-10T21:52:54.547Z,21.83
2018-04-10T21:55:24.326Z,18.90
2018-04-10T21:57:54.189Z,17.83
2018-04-10T22:00:23.972Z,20.57
2018-04-10T22:02:53.758Z,7.53
2018-04-10T22:05:23.725Z,13.00
2018-04-10T22:07:53.494Z,23.43
2018-04-10T22:10:23.339Z,21.63
2018-04-10T22:12:53.156Z,11.00
2018-04-10T22:15:22.921Z,9.23
2018-04-10T22:17:52.709Z,11.53
2018-04-10T22:20:22.610Z,12.83
2018-04-10T22:22:52.349Z,11.47
2018-04-10T22:25:22.119Z,12.60
2018-04-10T22:27:51.878Z,7.17
2018-04-10T22:30:21.764Z,17.63
2018-04-10T22:32:51.529Z,14.03
2018-04-10T22:35:22.157Z,10.50
2018-04-10T22:37:51.912Z,12.37
2018-04-10T22:40:21.704Z,11.10
2018-04-10T22:42:51.467Z,13.47
2018-04-10T22:45:21.260Z,8.70
2018-04-10T22:47:51.026Z,7.80
2018-04-10T22:50:20.785Z,9.53
2018-04-10T22:52:50.533Z,7.03
2018-04-10T22:55:20.312Z,11.50
2018-04-10T22:57:50.072Z,7.77
2018-04-10T23:00:25.639Z,11.17
2018-04-10T23:02:55.409Z,7.80
2018-04-10T23:05:25.187Z,8.17
2018-04-10T23:07:54.961Z,6.83
2018-04-10T23:10:24.730Z,14.87
2018-04-10T23:12:54.556Z,12.07
2018-04-10T23:15:24.327Z,7.93
2018-04-10T23:17:54.103Z,7.33
2018-04-10T23:20:23.913Z,9.07
2018-04-10T23:22:53.680Z,5.90
2018-04-10T23:25:23.441Z,11.17
2018-04-10T23:27:53.229Z,10.20
2018-04-10T23:30:22.983Z,8.40
2018-04-10T23:32:52.772Z,9.60
2018-04-10T23:35:22.588Z,9.57
2018-04-10T23:37:52.373Z,10.53
2018-04-10T23:40:22.131Z,7.33
2018-04-10T23:42:51.914Z,6.50
2018-04-10T23:45:21.667Z,5.27
2018-04-10T23:47:51.447Z,8.97
2018-04-10T23:50:21.217Z,5.97
2018-04-10T23:52:51.064Z,6.20
2018-04-10T23:55:20.839Z,5.63
2018-04-10T23:57:50.628Z,7.37
